Ottumwa, IA

3:29 AM CST on December 07, 2016 (GMT -0600)
East | | Change Station

Elev 833 ft 41.03 °N, 92.40 °W | Updated 3 minutes ago

Clear
Clear
24.4 °F
Feels Like 16 °F
N
7.0
Wind Variable Wind from WSW
Gusts 12.0 mph

Today
High -- | Low -- °F
--% Chance of Precip.
Yesterday
High -- | Low -- °F
Precip. -- in
Pressure 30.17 in
Visibility 10.0 miles
Clouds Clear
Windchill 16 °F
Dew Point 13 °F
Humidity 61%
Rainfall 0.00 in
Snow Depth Not available.
7:21 AM 4:41 PM
Waxing Crescent, 50% visible
METAR KOTM 070853Z AUTO 29013KT 10SM CLR M04/M11 A3013 RMK AO2 SLP214 T10391106 53016
Pressure 30.17 in
Visibility 10.0 miles
Clouds Clear
Windchill 16 °F
Dew Point 13 °F
Humidity 61%
Rainfall 0.00 in
Snow Depth Not available.
7:21 AM 4:41 PM
Waxing Crescent, 50% visible
METAR KOTM 070853Z AUTO 29013KT 10SM CLR M04/M11 A3013 RMK AO2 SLP214 T10391106 53016

10-Day Weather Forecast

Almanac

Astronomy

Dec. 07, 2016 Rise Set
Actual Time
Civil Twilight
Nautical Twilight
Astronomical Twilight
Moon
Length of Visible Light
Length of Day
Tomorrow will be .
, % of the Moon is Illuminated

Today's Extremes

State Highs State Lows

Community

WunderPhotos

Upload Photos

1,956,104 photos uploaded!

WunderBlog® & News

Nearby

Air Quality

  Air Quality AQ Index Pollutant
Not available.

Snow Depth

Station Depth Elevation

Earthquake Activity

City Distance Mag. Time & Date
Minimum magnitude displayed is 2.5.

Coastal Water Temperatures

Place Temperature

Stations

Nearby Weather Stations

Station Location Temp. Windchill Dew Point Humidity Wind Precip. Elev Updated Type
                   

Watches & Warnings

There are currently no watches in effect.